sensor_id;sensor_type;location;lat;lon;timestamp;pressure;altitude;pressure_sealevel;temperature;humidity
27144;BME280;14672;50.250;8.312;2023-02-16T00:01:55;99837.53;;;5.02;69.34
27144;BME280;14672;50.250;8.312;2023-02-16T00:04:29;99834.72;;;5.02;69.31
27144;BME280;14672;50.250;8.312;2023-02-16T00:06:56;99836.31;;;4.89;69.25
27144;BME280;14672;50.250;8.312;2023-02-16T00:09:23;99836.31;;;4.96;69.06
27144;BME280;14672;50.250;8.312;2023-02-16T00:11:51;99838.75;;;5.01;69.14
27144;BME280;14672;50.250;8.312;2023-02-16T00:14:38;99840.72;;;4.90;69.10
27144;BME280;14672;50.250;8.312;2023-02-16T00:17:04;99839.94;;;4.89;69.59
27144;BME280;14672;50.250;8.312;2023-02-16T00:19:35;99829.06;;;4.88;69.59
27144;BME280;14672;50.250;8.312;2023-02-16T00:22:03;99831.84;;;4.77;70.08
27144;BME280;14672;50.250;8.312;2023-02-16T00:24:30;99827.38;;;4.69;70.49
27144;BME280;14672;50.250;8.312;2023-02-16T00:26:57;99835.03;;;4.68;69.75
27144;BME280;14672;50.250;8.312;2023-02-16T00:29:34;99835.44;;;4.74;69.90
27144;BME280;14672;50.250;8.312;2023-02-16T00:32:03;99812.13;;;4.73;69.96
27144;BME280;14672;50.250;8.312;2023-02-16T00:34:34;99824.63;;;4.83;69.34
27144;BME280;14672;50.250;8.312;2023-02-16T00:37:10;99818.19;;;4.83;68.89
27144;BME280;14672;50.250;8.312;2023-02-16T00:39:38;99806.53;;;4.84;69.14
27144;BME280;14672;50.250;8.312;2023-02-16T00:42:19;99807.72;;;4.80;69.30
27144;BME280;14672;50.250;8.312;2023-02-16T00:44:57;99806.06;;;4.64;70.48
27144;BME280;14672;50.250;8.312;2023-02-16T00:47:36;99818.59;;;4.78;68.79
27144;BME280;14672;50.250;8.312;2023-02-16T00:52:50;99807.34;;;4.92;68.28
27144;BME280;14672;50.250;8.312;2023-02-16T00:55:22;99817.00;;;4.98;68.58
27144;BME280;14672;50.250;8.312;2023-02-16T00:57:54;99827.09;;;5.02;67.92
27144;BME280;14672;50.250;8.312;2023-02-16T01:00:32;99837.94;;;5.00;67.35
27144;BME280;14672;50.250;8.312;2023-02-16T01:03:27;99841.56;;;4.97;67.60
27144;BME280;14672;50.250;8.312;2023-02-16T01:05:54;99841.56;;;5.01;67.14
27144;BME280;14672;50.250;8.312;2023-02-16T01:08:39;99836.75;;;5.05;67.13
27144;BME280;14672;50.250;8.312;2023-02-16T01:11:25;99845.97;;;5.02;67.00
27144;BME280;14672;50.250;8.312;2023-02-16T01:13:53;99845.16;;;4.98;66.97
27144;BME280;14672;50.250;8.312;2023-02-16T01:16:25;99841.97;;;4.96;66.42
27144;BME280;14672;50.250;8.312;2023-02-16T01:18:52;99839.94;;;4.93;66.12
27144;BME280;14672;50.250;8.312;2023-02-16T01:21:19;99837.50;;;4.88;65.89
27144;BME280;14672;50.250;8.312;2023-02-16T01:23:47;99834.31;;;4.89;66.14
27144;BME280;14672;50.250;8.312;2023-02-16T01:26:17;99843.53;;;4.90;66.39
27144;BME280;14672;50.250;8.312;2023-02-16T01:28:44;99838.72;;;4.94;65.73
27144;BME280;14672;50.250;8.312;2023-02-16T01:31:12;99840.34;;;4.95;66.74
27144;BME280;14672;50.250;8.312;2023-02-16T01:33:39;99837.94;;;5.00;67.18
27144;BME280;14672;50.250;8.312;2023-02-16T01:38:42;99833.50;;;4.96;67.26
27144;BME280;14672;50.250;8.312;2023-02-16T01:41:53;99831.88;;;4.91;66.63
27144;BME280;14672;50.250;8.312;2023-02-16T01:44:31;99826.63;;;4.90;66.34
27144;BME280;14672;50.250;8.312;2023-02-16T01:50:34;99835.50;;;4.85;67.50
27144;BME280;14672;50.250;8.312;2023-02-16T01:53:54;99844.34;;;4.90;67.45
27144;BME280;14672;50.250;8.312;2023-02-16T01:56:35;99845.97;;;4.95;67.62
27144;BME280;14672;50.250;8.312;2023-02-16T01:59:13;99829.84;;;4.85;67.73
27144;BME280;14672;50.250;8.312;2023-02-16T02:01:52;99821.41;;;4.85;68.80
27144;BME280;14672;50.250;8.312;2023-02-16T02:04:28;99825.44;;;4.94;68.00
27144;BME280;14672;50.250;8.312;2023-02-16T02:07:27;99829.06;;;4.91;67.39
27144;BME280;14672;50.250;8.312;2023-02-16T02:10:23;99818.19;;;4.83;66.93
27144;BME280;14672;50.250;8.312;2023-02-16T02:13:25;99814.16;;;4.77;66.35
27144;BME280;14672;50.250;8.312;2023-02-16T02:15:55;99802.88;;;4.69;66.28
27144;BME280;14672;50.250;8.312;2023-02-16T02:18:21;99788.78;;;4.69;65.94
27144;BME280;14672;50.250;8.312;2023-02-16T02:27:36;99784.75;;;4.70;67.87
27144;BME280;14672;50.250;8.312;2023-02-16T02:30:13;99777.91;;;4.61;67.95
27144;BME280;14672;50.250;8.312;2023-02-16T02:41:42;99778.31;;;4.66;68.71
27144;BME280;14672;50.250;8.312;2023-02-16T02:44:55;99778.28;;;4.59;68.40
27144;BME280;14672;50.250;8.312;2023-02-16T02:47:22;99766.19;;;4.48;68.94
27144;BME280;14672;50.250;8.312;2023-02-16T02:49:53;99781.09;;;4.52;69.43
27144;BME280;14672;50.250;8.312;2023-02-16T02:52:20;99785.91;;;4.52;69.01
27144;BME280;14672;50.250;8.312;2023-02-16T02:54:48;99780.28;;;4.55;69.52
27144;BME280;14672;50.250;8.312;2023-02-16T02:57:42;99786.28;;;4.50;69.14
27144;BME280;14672;50.250;8.312;2023-02-16T03:00:42;99786.59;;;4.31;69.88
27144;BME280;14672;50.250;8.312;2023-02-16T03:03:46;99790.28;;;4.42;69.12
27144;BME280;14672;50.250;8.312;2023-02-16T03:06:26;99793.06;;;4.35;69.60
27144;BME280;14672;50.250;8.312;2023-02-16T03:09:06;99787.84;;;4.34;69.35
27144;BME280;14672;50.250;8.312;2023-02-16T03:11:33;99797.50;;;4.36;69.50
27144;BME280;14672;50.250;8.312;2023-02-16T03:14:31;99786.25;;;4.40;69.13
27144;BME280;14672;50.250;8.312;2023-02-16T03:17:04;99787.91;;;4.48;68.99
27144;BME280;14672;50.250;8.312;2023-02-16T03:19:51;99788.25;;;4.36;69.62
27144;BME280;14672;50.250;8.312;2023-02-16T03:22:37;99776.59;;;4.37;69.10
27144;BME280;14672;50.250;8.312;2023-02-16T03:25:25;99782.28;;;4.48;69.33
27144;BME280;14672;50.250;8.312;2023-02-16T03:28:12;99775.81;;;4.44;69.39
27144;BME280;14672;50.250;8.312;2023-02-16T03:30:58;99769.00;;;4.41;69.57
27144;BME280;14672;50.250;8.312;2023-02-16T03:33:27;99775.78;;;4.33;70.30
27144;BME280;14672;50.250;8.312;2023-02-16T03:35:53;99782.56;;;4.25;69.45
27144;BME280;14672;50.250;8.312;2023-02-16T03:38:20;99774.94;;;4.25;69.68
27144;BME280;14672;50.250;8.312;2023-02-16T03:40:49;99780.16;;;4.27;70.40
27144;BME280;14672;50.250;8.312;2023-02-16T03:43:16;99784.53;;;4.14;70.12
27144;BME280;14672;50.250;8.312;2023-02-16T03:45:43;99780.50;;;4.15;70.59
27144;BME280;14672;50.250;8.312;2023-02-16T03:48:10;99779.75;;;4.25;70.45
27144;BME280;14672;50.250;8.312;2023-02-16T03:50:36;99782.59;;;4.32;69.64
27144;BME280;14672;50.250;8.312;2023-02-16T03:53:02;99771.72;;;4.23;69.88
27144;BME280;14672;50.250;8.312;2023-02-16T03:55:40;99776.16;;;4.24;69.73
27144;BME280;14672;50.250;8.312;2023-02-16T03:58:09;99787.78;;;4.26;69.66
27144;BME280;14672;50.250;8.312;2023-02-16T04:00:35;99784.13;;;4.19;70.19
27144;BME280;14672;50.250;8.312;2023-02-16T04:03:03;99784.16;;;4.22;69.64
27144;BME280;14672;50.250;8.312;2023-02-16T04:05:30;99780.97;;;4.24;69.30
27144;BME280;14672;50.250;8.312;2023-02-16T04:07:56;99777.28;;;4.13;70.38
27144;BME280;14672;50.250;8.312;2023-02-16T04:10:22;99778.13;;;4.17;70.12
27144;BME280;14672;50.250;8.312;2023-02-16T04:12:48;99776.88;;;4.14;70.45
27144;BME280;14672;50.250;8.312;2023-02-16T04:15:18;99776.03;;;4.03;70.81
27144;BME280;14672;50.250;8.312;2023-02-16T04:17:44;99777.59;;;3.97;71.12
27144;BME280;14672;50.250;8.312;2023-02-16T04:20:13;99781.25;;;4.05;70.32
27144;BME280;14672;50.250;8.312;2023-02-16T04:22:40;99781.25;;;4.05;70.72
27144;BME280;14672;50.250;8.312;2023-02-16T04:25:06;99778.13;;;4.17;70.38
27144;BME280;14672;50.250;8.312;2023-02-16T04:27:33;99772.06;;;4.18;69.88
27144;BME280;14672;50.250;8.312;2023-02-16T04:29:59;99786.47;;;4.03;71.20
27144;BME280;14672;50.250;8.312;2023-02-16T04:32:25;99785.31;;;4.14;70.93
27144;BME280;14672;50.250;8.312;2023-02-16T04:34:51;99777.22;;;4.02;70.58
27144;BME280;14672;50.250;8.312;2023-02-16T04:37:17;99786.78;;;3.94;70.85
27144;BME280;14672;50.250;8.312;2023-02-16T04:39:43;99783.22;;;3.97;71.17
27144;BME280;14672;50.250;8.312;2023-02-16T04:42:08;99783.28;;;4.11;69.44
27144;BME280;14672;50.250;8.312;2023-02-16T04:44:34;99778.50;;;4.19;69.46
27144;BME280;14672;50.250;8.312;2023-02-16T04:47:00;99775.34;;;4.28;69.56
27144;BME280;14672;50.250;8.312;2023-02-16T04:49:26;99771.69;;;4.16;69.76
27144;BME280;14672;50.250;8.312;2023-02-16T04:51:51;99764.44;;;4.19;70.16
27144;BME280;14672;50.250;8.312;2023-02-16T04:54:17;99772.06;;;4.15;69.37
27144;BME280;14672;50.250;8.312;2023-02-16T04:56:45;99773.28;;;4.14;70.17
27144;BME280;14672;50.250;8.312;2023-02-16T04:59:12;99780.44;;;4.01;69.92
27144;BME280;14672;50.250;8.312;2023-02-16T05:01:38;99776.84;;;4.07;70.57
27144;BME280;14672;50.250;8.312;2023-02-16T05:04:04;99769.72;;;4.24;69.43
27144;BME280;14672;50.250;8.312;2023-02-16T05:06:30;99769.28;;;4.22;69.79
27144;BME280;14672;50.250;8.312;2023-02-16T05:08:56;99778.13;;;4.17;69.00
27144;BME280;14672;50.250;8.312;2023-02-16T05:11:22;99769.25;;;4.11;69.63
27144;BME280;14672;50.250;8.312;2023-02-16T05:14:06;99778.00;;;3.99;70.19
27144;BME280;14672;50.250;8.312;2023-02-16T05:16:50;99784.91;;;4.09;70.29
27144;BME280;14672;50.250;8.312;2023-02-16T05:19:16;99773.94;;;3.86;71.55
27144;BME280;14672;50.250;8.312;2023-02-16T05:21:42;99787.84;;;3.68;70.76
27144;BME280;14672;50.250;8.312;2023-02-16T05:24:10;99780.44;;;4.01;70.16
27144;BME280;14672;50.250;8.312;2023-02-16T05:26:37;99783.66;;;4.03;70.16
27144;BME280;14672;50.250;8.312;2023-02-16T05:29:05;99781.25;;;4.05;69.63
27144;BME280;14672;50.250;8.312;2023-02-16T05:31:31;99790.09;;;4.07;69.61
27144;BME280;14672;50.250;8.312;2023-02-16T05:33:57;99780.81;;;3.99;70.07
27144;BME280;14672;50.250;8.312;2023-02-16T05:36:23;99784.38;;;3.86;69.75
27144;BME280;14672;50.250;8.312;2023-02-16T05:38:49;99784.03;;;3.98;70.69
27144;BME280;14672;50.250;8.312;2023-02-16T05:41:15;99792.31;;;3.76;70.61
27144;BME280;14672;50.250;8.312;2023-02-16T05:43:54;99786.75;;;3.84;70.22
27144;BME280;14672;50.250;8.312;2023-02-16T05:46:22;99782.69;;;3.77;70.48
27144;BME280;14672;50.250;8.312;2023-02-16T05:48:48;99794.81;;;3.89;70.51
27144;BME280;14672;50.250;8.312;2023-02-16T05:51:20;99801.81;;;3.54;71.07
27144;BME280;14672;50.250;8.312;2023-02-16T05:53:46;99803.50;;;3.66;71.07
27144;BME280;14672;50.250;8.312;2023-02-16T05:56:13;99801.59;;;3.81;70.88
27144;BME280;14672;50.250;8.312;2023-02-16T05:58:39;99793.66;;;3.97;70.18
27144;BME280;14672;50.250;8.312;2023-02-16T06:01:05;99796.44;;;3.90;69.52
27144;BME280;14672;50.250;8.312;2023-02-16T06:03:31;99805.69;;;3.94;69.65
27144;BME280;14672;50.250;8.312;2023-02-16T06:06:00;99802.47;;;3.95;70.09
27144;BME280;14672;50.250;8.312;2023-02-16T06:08:26;99799.78;;;4.09;69.51
27144;BME280;14672;50.250;8.312;2023-02-16T06:10:53;99800.16;;;4.11;69.51
27144;BME280;14672;50.250;8.312;2023-02-16T06:13:20;99804.97;;;4.07;69.15
27144;BME280;14672;50.250;8.312;2023-02-16T06:15:53;99816.22;;;4.11;69.49
27144;BME280;14672;50.250;8.312;2023-02-16T06:18:20;99814.16;;;4.01;69.20
27144;BME280;14672;50.250;8.312;2023-02-16T06:20:46;99815.78;;;4.02;69.21
27144;BME280;14672;50.250;8.312;2023-02-16T06:23:13;99825.38;;;3.94;69.57
27144;BME280;14672;50.250;8.312;2023-02-16T06:25:48;99820.09;;;3.89;69.40
27144;BME280;14672;50.250;8.312;2023-02-16T06:28:15;99824.06;;;3.81;70.07
27144;BME280;14672;50.250;8.312;2023-02-16T06:30:41;99821.75;;;3.93;69.81
27144;BME280;14672;50.250;8.312;2023-02-16T06:33:07;99826.06;;;3.80;69.42
27144;BME280;14672;50.250;8.312;2023-02-16T06:35:33;99829.25;;;3.78;70.13
27144;BME280;14672;50.250;8.312;2023-02-16T06:37:59;99834.13;;;3.82;69.76
27144;BME280;14672;50.250;8.312;2023-02-16T06:40:25;99831.81;;;3.98;69.96
27144;BME280;14672;50.250;8.312;2023-02-16T06:42:51;99823.81;;;4.03;69.48
27144;BME280;14672;50.250;8.312;2023-02-16T06:45:17;99822.25;;;4.06;69.34
27144;BME280;14672;50.250;8.312;2023-02-16T06:47:43;99814.59;;;4.06;69.40
27144;BME280;14672;50.250;8.312;2023-02-16T06:50:09;99815.78;;;4.02;69.27
27144;BME280;14672;50.250;8.312;2023-02-16T06:52:36;99815.81;;;4.09;69.06
27144;BME280;14672;50.250;8.312;2023-02-16T06:55:02;99818.19;;;4.03;69.16
27144;BME280;14672;50.250;8.312;2023-02-16T06:57:28;99811.72;;;3.96;70.20
27144;BME280;14672;50.250;8.312;2023-02-16T06:59:54;99811.69;;;3.89;69.68
27144;BME280;14672;50.250;8.312;2023-02-16T07:02:21;99814.50;;;3.89;69.95
27144;BME280;14672;50.250;8.312;2023-02-16T07:04:47;99814.16;;;3.97;69.67
27144;BME280;14672;50.250;8.312;2023-02-16T07:07:13;99819.84;;;3.53;71.12
27144;BME280;14672;50.250;8.312;2023-02-16T07:09:38;99823.22;;;3.76;70.96
27144;BME280;14672;50.250;8.312;2023-02-16T07:12:05;99826.00;;;3.69;70.85
27144;BME280;14672;50.250;8.312;2023-02-16T07:14:31;99819.28;;;3.85;71.39
27144;BME280;14672;50.250;8.312;2023-02-16T07:16:57;99810.91;;;3.95;70.84
27144;BME280;14672;50.250;8.312;2023-02-16T07:19:27;99822.19;;;3.99;70.20
27144;BME280;14672;50.250;8.312;2023-02-16T07:22:00;99819.03;;;4.11;69.52
27144;BME280;14672;50.250;8.312;2023-02-16T07:24:26;99819.50;;;4.20;69.84
27144;BME280;14672;50.250;8.312;2023-02-16T07:26:52;99813.88;;;4.20;69.97
27144;BME280;14672;50.250;8.312;2023-02-16T07:29:18;99815.91;;;4.23;69.85
27144;BME280;14672;50.250;8.312;2023-02-16T07:31:44;99825.97;;;4.28;69.61
27144;BME280;14672;50.250;8.312;2023-02-16T07:34:10;99821.16;;;4.28;69.89
27144;BME280;14672;50.250;8.312;2023-02-16T07:36:35;99831.28;;;4.43;69.71
27144;BME280;14672;50.250;8.312;2023-02-16T07:39:01;99828.91;;;4.45;69.59
27144;BME280;14672;50.250;8.312;2023-02-16T07:41:27;99821.63;;;4.37;69.84
27144;BME280;14672;50.250;8.312;2023-02-16T07:43:53;99820.84;;;4.47;69.62
27144;BME280;14672;50.250;8.312;2023-02-16T07:46:19;99822.50;;;4.55;69.76
27144;BME280;14672;50.250;8.312;2023-02-16T07:48:49;99818.13;;;4.61;69.61
27144;BME280;14672;50.250;8.312;2023-02-16T07:51:29;99825.75;;;4.64;69.69
27144;BME280;14672;50.250;8.312;2023-02-16T07:53:57;99827.03;;;4.78;69.29
27144;BME280;14672;50.250;8.312;2023-02-16T07:56:26;99824.97;;;4.74;69.11
27144;BME280;14672;50.250;8.312;2023-02-16T07:58:54;99834.66;;;4.81;69.36
27144;BME280;14672;50.250;8.312;2023-02-16T08:01:21;99841.94;;;4.85;69.07
27144;BME280;14672;50.250;8.312;2023-02-16T08:03:47;99836.31;;;4.89;69.14
27144;BME280;14672;50.250;8.312;2023-02-16T08:06:14;99837.91;;;4.90;69.57
27144;BME280;14672;50.250;8.312;2023-02-16T08:08:42;99839.13;;;4.96;68.88
27144;BME280;14672;50.250;8.312;2023-02-16T08:13:39;99832.72;;;5.06;69.13
27144;BME280;14672;50.250;8.312;2023-02-16T08:16:18;99839.56;;;5.05;69.48
27144;BME280;14672;50.250;8.312;2023-02-16T08:18:45;99845.16;;;4.94;70.10
27144;BME280;14672;50.250;8.312;2023-02-16T08:21:14;99852.78;;;4.94;70.14
27144;BME280;14672;50.250;8.312;2023-02-16T08:23:43;99846.03;;;5.16;69.89
27144;BME280;14672;50.250;8.312;2023-02-16T08:26:15;99842.84;;;5.21;69.54
27144;BME280;14672;50.250;8.312;2023-02-16T08:28:43;99849.28;;;5.25;69.38
27144;BME280;14672;50.250;8.312;2023-02-16T08:31:19;99842.84;;;5.32;69.72
27144;BME280;14672;50.250;8.312;2023-02-16T08:33:46;99845.25;;;5.26;69.34
27144;BME280;14672;50.250;8.312;2023-02-16T08:36:25;99844.47;;;5.40;68.78
27144;BME280;14672;50.250;8.312;2023-02-16T08:38:53;99838.84;;;5.40;69.47
27144;BME280;14672;50.250;8.312;2023-02-16T08:41:22;99847.28;;;5.47;69.32
27144;BME280;14672;50.250;8.312;2023-02-16T08:43:49;99842.47;;;5.51;68.83
27144;BME280;14672;50.250;8.312;2023-02-16T08:46:16;99846.91;;;5.52;68.51
27144;BME280;14672;50.250;8.312;2023-02-16T08:48:43;99846.91;;;5.55;69.04
27144;BME280;14672;50.250;8.312;2023-02-16T08:51:18;99846.91;;;5.66;68.89
27144;BME280;14672;50.250;8.312;2023-02-16T08:53:45;99847.72;;;5.66;68.58
27144;BME280;14672;50.250;8.312;2023-02-16T08:56:13;99858.97;;;5.66;68.80
27144;BME280;14672;50.250;8.312;2023-02-16T08:58:39;99861.81;;;5.70;69.60
27144;BME280;14672;50.250;8.312;2023-02-16T09:01:06;99866.66;;;5.84;69.37
27144;BME280;14672;50.250;8.312;2023-02-16T09:03:34;99866.69;;;5.87;68.81
27144;BME280;14672;50.250;8.312;2023-02-16T09:06:03;99877.56;;;5.99;68.57
27144;BME280;14672;50.250;8.312;2023-02-16T09:08:30;99861.44;;;6.03;68.41
27144;BME280;14672;50.250;8.312;2023-02-16T09:11:24;99860.19;;;6.22;68.88
27144;BME280;14672;50.250;8.312;2023-02-16T09:13:50;99864.66;;;7.86;64.68
27144;BME280;14672;50.250;8.312;2023-02-16T09:16:19;99842.25;;;9.15;59.55
27144;BME280;14672;50.250;8.312;2023-02-16T09:18:46;99846.81;;;10.35;55.42
27144;BME280;14672;50.250;8.312;2023-02-16T09:21:17;99841.06;;;10.82;54.45
27144;BME280;14672;50.250;8.312;2023-02-16T09:23:46;99836.50;;;11.24;53.01
27144;BME280;14672;50.250;8.312;2023-02-16T09:26:17;99835.75;;;12.08;51.11
27144;BME280;14672;50.250;8.312;2023-02-16T09:28:44;99833.41;;;12.35;49.85
27144;BME280;14672;50.250;8.312;2023-02-16T09:31:27;99834.13;;;12.97;48.89
27144;BME280;14672;50.250;8.312;2023-02-16T09:33:58;99832.78;;;12.73;48.67
27144;BME280;14672;50.250;8.312;2023-02-16T09:36:24;99825.09;;;12.98;48.31
27144;BME280;14672;50.250;8.312;2023-02-16T09:38:53;99824.75;;;13.38;47.28
27144;BME280;14672;50.250;8.312;2023-02-16T09:46:50;99817.94;;;12.94;48.49
27144;BME280;14672;50.250;8.312;2023-02-16T09:49:34;99829.88;;;11.83;51.29
27144;BME280;14672;50.250;8.312;2023-02-16T09:54:55;99836.25;;;9.89;56.80
27144;BME280;14672;50.250;8.312;2023-02-16T09:57:39;99833.69;;;9.72;57.11
27144;BME280;14672;50.250;8.312;2023-02-16T10:09:34;99825.25;;;9.15;59.10
27144;BME280;14672;50.250;8.312;2023-02-16T10:12:10;99835.66;;;8.94;60.16
27144;BME280;14672;50.250;8.312;2023-02-16T10:14:55;99838.78;;;8.70;61.32
27144;BME280;14672;50.250;8.312;2023-02-16T10:17:33;99836.75;;;8.70;61.35
27144;BME280;14672;50.250;8.312;2023-02-16T10:20:26;99839.66;;;8.63;61.17
27144;BME280;14672;50.250;8.312;2023-02-16T10:26:05;99832.41;;;8.62;62.13
27144;BME280;14672;50.250;8.312;2023-02-16T10:28:46;99830.81;;;8.58;62.63
27144;BME280;14672;50.250;8.312;2023-02-16T10:31:30;99818.94;;;8.70;61.99
27144;BME280;14672;50.250;8.312;2023-02-16T10:34:44;99818.47;;;8.75;62.33
27144;BME280;14672;50.250;8.312;2023-02-16T10:43:24;99805.63;;;8.67;62.92
27144;BME280;14672;50.250;8.312;2023-02-16T10:45:56;99804.69;;;8.77;62.95
27144;BME280;14672;50.250;8.312;2023-02-16T10:48:26;99804.66;;;8.46;63.51
27144;BME280;14672;50.250;8.312;2023-02-16T10:51:23;99796.97;;;8.47;63.49
27144;BME280;14672;50.250;8.312;2023-02-16T10:54:01;99799.03;;;8.43;63.98
27144;BME280;14672;50.250;8.312;2023-02-16T10:56:59;99804.78;;;8.36;64.53
27144;BME280;14672;50.250;8.312;2023-02-16T10:59:43;99810.59;;;8.18;64.61
27144;BME280;14672;50.250;8.312;2023-02-16T11:02:25;99802.47;;;8.24;64.51
27144;BME280;14672;50.250;8.312;2023-02-16T11:04:55;99798.09;;;8.16;64.77
27144;BME280;14672;50.250;8.312;2023-02-16T11:07:27;99800.88;;;8.19;64.99
27144;BME280;14672;50.250;8.312;2023-02-16T11:09:57;99793.97;;;8.20;64.83
27144;BME280;14672;50.250;8.312;2023-02-16T11:12:37;99792.16;;;8.03;65.39
27144;BME280;14672;50.250;8.312;2023-02-16T11:18:05;99780.91;;;7.96;65.22
27144;BME280;14672;50.250;8.312;2023-02-16T11:26:06;99769.25;;;8.28;65.15
27144;BME280;14672;50.250;8.312;2023-02-16T11:28:48;99766.44;;;8.24;64.65
27144;BME280;14672;50.250;8.312;2023-02-16T11:31:29;99772.44;;;8.33;64.69
27144;BME280;14672;50.250;8.312;2023-02-16T11:34:00;99772.06;;;8.31;64.61
27144;BME280;14672;50.250;8.312;2023-02-16T11:36:34;99771.34;;;8.58;64.56
27144;BME280;14672;50.250;8.312;2023-02-16T11:39:16;99772.50;;;8.94;63.56
27144;BME280;14672;50.250;8.312;2023-02-16T11:41:57;99778.22;;;9.17;63.28
27144;BME280;14672;50.250;8.312;2023-02-16T11:44:43;99776.13;;;9.48;62.60
27144;BME280;14672;50.250;8.312;2023-02-16T11:49:49;99770.16;;;9.66;61.70
27144;BME280;14672;50.250;8.312;2023-02-16T11:52:28;99761.34;;;10.07;60.65
27144;BME280;14672;50.250;8.312;2023-02-16T11:54:58;99762.47;;;10.32;59.66
27144;BME280;14672;50.250;8.312;2023-02-16T11:57:33;99758.09;;;10.87;58.84
27144;BME280;14672;50.250;8.312;2023-02-16T12:00:20;99753.75;;;11.35;58.17
27144;BME280;14672;50.250;8.312;2023-02-16T12:12:10;99734.13;;;12.75;54.87
27144;BME280;14672;50.250;8.312;2023-02-16T12:14:48;99728.75;;;13.31;53.92
27144;BME280;14672;50.250;8.312;2023-02-16T12:18:18;99730.34;;;13.20;53.68
27144;BME280;14672;50.250;8.312;2023-02-16T12:26:45;99722.91;;;13.09;53.72
27144;BME280;14672;50.250;8.312;2023-02-16T12:32:43;99726.81;;;12.61;54.34
27144;BME280;14672;50.250;8.312;2023-02-16T12:43:41;99732.09;;;11.57;56.43
27144;BME280;14672;50.250;8.312;2023-02-16T12:46:18;99717.84;;;11.57;56.37
27144;BME280;14672;50.250;8.312;2023-02-16T12:48:52;99718.75;;;11.38;56.76
27144;BME280;14672;50.250;8.312;2023-02-16T12:51:41;99727.81;;;11.32;57.53
27144;BME280;14672;50.250;8.312;2023-02-16T12:56:49;99712.25;;;11.21;57.92
27144;BME280;14672;50.250;8.312;2023-02-16T13:02:41;99695.44;;;11.10;58.42
27144;BME280;14672;50.250;8.312;2023-02-16T13:05:29;99686.97;;;11.07;58.29
27144;BME280;14672;50.250;8.312;2023-02-16T13:08:16;99682.75;;;10.79;59.07
27144;BME280;14672;50.250;8.312;2023-02-16T13:11:03;99682.59;;;10.86;59.09
27144;BME280;14672;50.250;8.312;2023-02-16T13:13:33;99681.28;;;10.91;59.27
27144;BME280;14672;50.250;8.312;2023-02-16T13:18:39;99668.94;;;10.61;59.94
27144;BME280;14672;50.250;8.312;2023-02-16T13:24:13;99664.38;;;10.48;59.95
27144;BME280;14672;50.250;8.312;2023-02-16T13:38:00;99657.41;;;10.32;61.55
27144;BME280;14672;50.250;8.312;2023-02-16T13:43:41;99652.66;;;10.06;61.63
27144;BME280;14672;50.250;8.312;2023-02-16T13:48:50;99650.00;;;10.19;61.91
27144;BME280;14672;50.250;8.312;2023-02-16T13:51:22;99641.91;;;10.17;62.01
27144;BME280;14672;50.250;8.312;2023-02-16T13:53:56;99644.38;;;10.15;62.41
27144;BME280;14672;50.250;8.312;2023-02-16T14:01:50;99626.38;;;10.02;62.84
27144;BME280;14672;50.250;8.312;2023-02-16T14:07:19;99638.69;;;10.15;63.01
27144;BME280;14672;50.250;8.312;2023-02-16T14:19:54;99631.03;;;10.32;62.68
27144;BME280;14672;50.250;8.312;2023-02-16T14:28:04;99627.38;;;10.31;63.66
27144;BME280;14672;50.250;8.312;2023-02-16T14:30:41;99629.56;;;10.44;63.43
27144;BME280;14672;50.250;8.312;2023-02-16T14:36:01;99624.03;;;10.36;64.13
27144;BME280;14672;50.250;8.312;2023-02-16T14:38:34;99623.78;;;10.31;64.40
27144;BME280;14672;50.250;8.312;2023-02-16T14:41:12;99638.91;;;10.24;64.39
27144;BME280;14672;50.250;8.312;2023-02-16T14:43:46;99641.72;;;10.44;63.75
27144;BME280;14672;50.250;8.312;2023-02-16T14:46:26;99632.41;;;10.44;63.85
27144;BME280;14672;50.250;8.312;2023-02-16T14:58:04;99632.50;;;10.20;64.59
27144;BME280;14672;50.250;8.312;2023-02-16T15:00:56;99626.41;;;10.22;65.13
27144;BME280;14672;50.250;8.312;2023-02-16T15:03:49;99629.59;;;10.24;64.80
27144;BME280;14672;50.250;8.312;2023-02-16T15:09:04;99631.84;;;10.32;64.91
27144;BME280;14672;50.250;8.312;2023-02-16T15:11:34;99633.59;;;10.26;65.25
27144;BME280;14672;50.250;8.312;2023-02-16T15:14:21;99635.63;;;10.06;65.49
27144;BME280;14672;50.250;8.312;2023-02-16T15:16:49;99638.88;;;10.05;65.98
27144;BME280;14672;50.250;8.312;2023-02-16T15:19:27;99636.22;;;10.17;66.27
27144;BME280;14672;50.250;8.312;2023-02-16T15:22:20;99639.50;;;10.16;65.77
27144;BME280;14672;50.250;8.312;2023-02-16T15:25:10;99643.25;;;9.89;66.21
27144;BME280;14672;50.250;8.312;2023-02-16T15:30:40;99637.16;;;10.11;66.11
27144;BME280;14672;50.250;8.312;2023-02-16T15:36:10;99635.47;;;10.13;66.30
27144;BME280;14672;50.250;8.312;2023-02-16T15:38:55;99641.22;;;10.10;66.31
27144;BME280;14672;50.250;8.312;2023-02-16T15:41:31;99635.84;;;10.15;66.07
27144;BME280;14672;50.250;8.312;2023-02-16T15:43:58;99630.75;;;10.07;66.10
27144;BME280;14672;50.250;8.312;2023-02-16T15:46:39;99626.56;;;10.11;66.12
27144;BME280;14672;50.250;8.312;2023-02-16T15:49:27;99620.47;;;10.13;66.03
27144;BME280;14672;50.250;8.312;2023-02-16T15:51:56;99607.06;;;10.13;66.03
27144;BME280;14672;50.250;8.312;2023-02-16T15:54:30;99603.50;;;10.09;66.15
27144;BME280;14672;50.250;8.312;2023-02-16T15:57:18;99600.53;;;10.16;66.14
27144;BME280;14672;50.250;8.312;2023-02-16T15:59:59;99595.31;;;10.15;66.62
27144;BME280;14672;50.250;8.312;2023-02-16T16:02:39;99592.66;;;10.04;66.68
27144;BME280;14672;50.250;8.312;2023-02-16T16:05:18;99597.25;;;9.98;66.76
27144;BME280;14672;50.250;8.312;2023-02-16T16:07:45;99591.00;;;9.87;67.21
27144;BME280;14672;50.250;8.312;2023-02-16T16:12:46;99585.25;;;9.90;67.03
27144;BME280;14672;50.250;8.312;2023-02-16T16:15:35;99595.56;;;9.81;67.22
27144;BME280;14672;50.250;8.312;2023-02-16T16:18:03;99583.22;;;9.91;66.79
27144;BME280;14672;50.250;8.312;2023-02-16T16:20:39;99581.47;;;9.97;66.59
27144;BME280;14672;50.250;8.312;2023-02-16T16:23:29;99576.94;;;9.80;67.13
27144;BME280;14672;50.250;8.312;2023-02-16T16:25:55;99582.13;;;9.85;65.93
27144;BME280;14672;50.250;8.312;2023-02-16T16:34:02;99576.88;;;9.83;66.09